createdAt,value
2019-05-22T00:00:29.918Z,99720.81
2019-05-22T00:03:00.956Z,99723.03
2019-05-22T00:05:34.728Z,99723.86
2019-05-22T00:08:05.237Z,99723.27
2019-05-22T00:10:34.731Z,99726.36
2019-05-22T00:13:04.563Z,99727.96
2019-05-22T00:15:33.400Z,99725.38
2019-05-22T00:18:03.736Z,99731.64
2019-05-22T00:20:33.518Z,99735.50
2019-05-22T00:23:05.338Z,99731.11
2019-05-22T00:25:35.534Z,99730.17
2019-05-22T00:28:04.641Z,99737.33
2019-05-22T00:30:40.802Z,99735.10
2019-05-22T00:33:11.261Z,99738.66
2019-05-22T00:35:41.568Z,99731.20
2019-05-22T00:38:11.632Z,99735.94
2019-05-22T00:40:45.356Z,99728.55
2019-05-22T00:43:17.139Z,99731.94
2019-05-22T00:45:48.908Z,99732.22
2019-05-22T00:48:20.541Z,99735.19
2019-05-22T00:51:04.485Z,99691.77
2019-05-22T00:53:47.605Z,99739.42
2019-05-22T00:56:35.438Z,99737.39
2019-05-22T00:59:11.367Z,99740.35
2019-05-22T01:01:55.590Z,99731.77
2019-05-22T01:04:25.704Z,99737.71
2019-05-22T01:06:55.440Z,99736.58
2019-05-22T01:09:26.219Z,99740.37
2019-05-22T01:11:55.669Z,99738.84
2019-05-22T01:14:25.137Z,99740.20
2019-05-22T01:16:53.642Z,99740.30
2019-05-22T01:19:23.990Z,99741.06
2019-05-22T01:21:54.500Z,99750.18
2019-05-22T01:24:24.334Z,99747.84
2019-05-22T01:26:54.881Z,99750.30
2019-05-22T01:29:24.936Z,99747.84
2019-05-22T01:32:06.922Z,99742.52
2019-05-22T01:34:37.249Z,99743.84
2019-05-22T01:37:07.822Z,99743.03
2019-05-22T01:39:46.872Z,99743.15
2019-05-22T01:42:18.462Z,99743.66
2019-05-22T01:45:01.527Z,99743.92
2019-05-22T01:47:26.714Z,99742.72
2019-05-22T01:49:56.313Z,99751.51
2019-05-22T01:52:27.083Z,99747.20
2019-05-22T01:54:57.561Z,99751.00
2019-05-22T01:57:28.315Z,99749.59
2019-05-22T01:59:58.163Z,99754.41
2019-05-22T02:02:26.569Z,99756.45
2019-05-22T02:04:58.386Z,99745.80
2019-05-22T02:07:29.104Z,99747.45
2019-05-22T02:09:59.316Z,99746.31
2019-05-22T02:12:44.167Z,99744.28
2019-05-22T02:15:13.042Z,99747.89
2019-05-22T02:17:41.833Z,99744.98
2019-05-22T02:20:11.079Z,99738.73
2019-05-22T02:22:40.776Z,99744.74
2019-05-22T02:25:12.795Z,99747.64
2019-05-22T02:27:41.744Z,99737.59
2019-05-22T02:30:10.864Z,99746.80
2019-05-22T02:32:40.995Z,99751.17
2019-05-22T02:35:10.349Z,99749.97
2019-05-22T02:37:39.241Z,99756.89
2019-05-22T02:40:20.169Z,99762.38
2019-05-22T02:42:50.611Z,99761.42
2019-05-22T02:45:20.572Z,99763.86
2019-05-22T02:47:50.218Z,99760.88
2019-05-22T02:50:19.961Z,99768.83
2019-05-22T02:52:49.535Z,99765.16
2019-05-22T02:55:18.120Z,99767.63
2019-05-22T02:57:46.580Z,99767.63
2019-05-22T03:00:16.881Z,99774.97
2019-05-22T03:02:50.367Z,99770.86
2019-05-22T03:05:20.737Z,99768.08
2019-05-22T03:07:49.211Z,99770.47
2019-05-22T03:10:20.329Z,99771.46
2019-05-22T03:12:50.845Z,99770.83
2019-05-22T03:15:23.370Z,99768.37
2019-05-22T03:17:55.109Z,99768.52
2019-05-22T03:20:24.506Z,99771.24
2019-05-22T03:23:18.781Z,99770.16
2019-05-22T03:28:36.583Z,99767.50
2019-05-22T03:31:06.737Z,99780.55
2019-05-22T03:33:35.761Z,99773.87
2019-05-22T03:36:10.525Z,99774.12
2019-05-22T03:38:41.199Z,99781.27
2019-05-22T03:41:12.491Z,99775.33
2019-05-22T03:43:44.907Z,99778.05
2019-05-22T03:46:22.186Z,99783.36
2019-05-22T03:48:51.198Z,99782.86
2019-05-22T03:51:20.130Z,99781.97
2019-05-22T03:53:49.988Z,99780.33
2019-05-22T03:56:20.382Z,99783.61
2019-05-22T03:58:49.030Z,99785.98
2019-05-22T04:01:19.375Z,99788.61
2019-05-22T04:03:48.228Z,99788.01
2019-05-22T04:06:18.488Z,99791.61
2019-05-22T04:08:47.270Z,99792.19
2019-05-22T04:11:16.218Z,99792.09
2019-05-22T04:13:44.684Z,99797.59
2019-05-22T04:16:17.604Z,99793.86
2019-05-22T04:18:47.144Z,99793.04
2019-05-22T04:21:16.144Z,99800.47
2019-05-22T04:23:44.552Z,99802.44
2019-05-22T04:26:14.678Z,99797.81
2019-05-22T04:28:49.197Z,99798.77
2019-05-22T04:31:18.522Z,99801.42
2019-05-22T04:33:47.484Z,99804.14
2019-05-22T04:36:16.538Z,99796.02
2019-05-22T04:38:46.164Z,99803.67
2019-05-22T04:41:15.100Z,99808.66
2019-05-22T04:43:43.732Z,99807.97
2019-05-22T04:46:12.806Z,99808.98
2019-05-22T04:48:46.109Z,99813.60
2019-05-22T04:51:25.467Z,99820.24
2019-05-22T04:53:54.754Z,99816.89
2019-05-22T04:56:24.235Z,99816.00
2019-05-22T04:58:54.619Z,99820.66
2019-05-22T05:01:23.834Z,99823.38
2019-05-22T05:03:53.491Z,99831.45
2019-05-22T05:06:24.318Z,99816.89
2019-05-22T05:08:52.961Z,99827.36
2019-05-22T05:11:21.857Z,99828.44
2019-05-22T05:13:50.373Z,99828.31
2019-05-22T05:16:18.926Z,99817.23
2019-05-22T05:18:47.363Z,99827.55
2019-05-22T05:21:16.039Z,99830.43
2019-05-22T05:23:44.675Z,99829.80
2019-05-22T05:26:13.679Z,99834.29
2019-05-22T05:28:42.802Z,99839.66
2019-05-22T05:31:12.004Z,99842.48
2019-05-22T05:33:49.494Z,99842.98
2019-05-22T05:36:18.081Z,99849.35
2019-05-22T05:38:47.145Z,99847.26
2019-05-22T05:41:16.153Z,99849.16
2019-05-22T05:43:44.929Z,99855.17
2019-05-22T05:46:13.473Z,99857.13
2019-05-22T05:48:42.909Z,99855.45
2019-05-22T05:51:20.268Z,99858.30
2019-05-22T05:53:58.460Z,99860.84
2019-05-22T05:56:30.191Z,99865.33
2019-05-22T05:59:00.304Z,99861.34
2019-05-22T06:01:30.417Z,99863.75
2019-05-22T06:04:00.409Z,99864.67
2019-05-22T06:06:34.803Z,99871.75
2019-05-22T06:09:05.128Z,99868.34
2019-05-22T06:11:53.085Z,99878.66
2019-05-22T06:14:25.066Z,99875.17
2019-05-22T06:17:23.470Z,99871.09
2019-05-22T06:19:55.635Z,99876.56
2019-05-22T06:22:24.091Z,99879.63
2019-05-22T06:25:01.969Z,99884.89
2019-05-22T06:27:42.966Z,99884.06
2019-05-22T06:30:16.554Z,99889.34
2019-05-22T06:33:09.451Z,99890.36
2019-05-22T06:35:38.683Z,99896.34
2019-05-22T06:38:19.053Z,99899.45
2019-05-22T06:40:49.360Z,99891.44
2019-05-22T06:43:21.741Z,99893.65
2019-05-22T06:45:50.276Z,99895.58
2019-05-22T06:48:18.747Z,99898.68
2019-05-22T06:50:49.449Z,99897.34
2019-05-22T06:53:18.019Z,99904.28
2019-05-22T06:55:46.443Z,99895.27
2019-05-22T06:58:14.864Z,99903.84
2019-05-22T07:00:43.851Z,99908.02
2019-05-22T07:03:12.410Z,99908.53
2019-05-22T07:05:41.654Z,99907.48
2019-05-22T07:08:10.591Z,99908.28
2019-05-22T07:10:39.749Z,99906.95
2019-05-22T07:13:11.061Z,99905.71
2019-05-22T07:15:42.437Z,99909.63
2019-05-22T07:18:13.229Z,99916.66
2019-05-22T07:20:42.627Z,99916.83
2019-05-22T07:23:15.180Z,99920.81
2019-05-22T07:25:44.987Z,99914.57
2019-05-22T07:28:15.495Z,99912.80
2019-05-22T07:30:44.952Z,99924.45
2019-05-22T07:33:13.781Z,99921.48
2019-05-22T07:36:04.855Z,99923.95
2019-05-22T07:38:14.741Z,99918.24
2019-05-22T07:40:44.644Z,99931.80
2019-05-22T07:43:13.938Z,99928.60
2019-05-22T07:45:42.519Z,99932.59
2019-05-22T07:48:13.233Z,99930.81
2019-05-22T07:50:48.094Z,99937.21
2019-05-22T07:53:18.859Z,99933.41
2019-05-22T07:55:49.093Z,99929.62
2019-05-22T07:58:18.458Z,99932.08
2019-05-22T08:00:51.102Z,99933.19
2019-05-22T08:03:21.504Z,99936.23
2019-05-22T08:05:55.077Z,99941.39
2019-05-22T08:08:24.986Z,99946.96
2019-05-22T08:10:54.638Z,99943.09
2019-05-22T08:13:23.840Z,99944.64
2019-05-22T08:15:52.477Z,99939.13
2019-05-22T08:18:21.856Z,99942.48
2019-05-22T08:20:50.914Z,99947.97
2019-05-22T08:23:20.082Z,99945.61
2019-05-22T08:25:48.802Z,99951.27
2019-05-22T08:28:19.875Z,99955.92
2019-05-22T08:30:49.486Z,99953.06
2019-05-22T08:33:21.384Z,99957.73
2019-05-22T08:35:50.856Z,99955.20
2019-05-22T08:38:23.617Z,99957.77
2019-05-22T08:40:52.931Z,99957.98
2019-05-22T08:43:22.360Z,99960.64
2019-05-22T08:45:50.781Z,99957.98
2019-05-22T08:48:20.727Z,99963.72
2019-05-22T08:50:50.203Z,99965.11
2019-05-22T08:53:19.762Z,99964.28
2019-05-22T08:55:49.202Z,99968.12
2019-05-22T08:58:18.817Z,99972.99
2019-05-22T09:00:48.555Z,99974.97
2019-05-22T09:03:17.457Z,99970.86
2019-05-22T09:05:46.463Z,99969.78
2019-05-22T09:08:14.992Z,99975.12
2019-05-22T09:10:43.991Z,99978.52
2019-05-22T09:13:12.557Z,99986.08
2019-05-22T09:15:41.214Z,99978.45
2019-05-22T09:18:10.220Z,99980.80
2019-05-22T09:20:48.952Z,99980.70
2019-05-22T09:23:09.650Z,99982.03
2019-05-22T09:25:38.493Z,99986.20
2019-05-22T09:28:07.182Z,99986.09
2019-05-22T09:30:37.054Z,99985.37
2019-05-22T09:33:06.325Z,99983.48
2019-05-22T09:35:35.252Z,99985.13
2019-05-22T09:38:03.988Z,99988.19
2019-05-22T09:40:32.900Z,99982.59
2019-05-22T09:43:03.614Z,99987.48
2019-05-22T09:45:32.563Z,99990.33
2019-05-22T09:48:01.489Z,99991.52
2019-05-22T09:50:30.123Z,99992.44
2019-05-22T09:52:58.865Z,99995.34
2019-05-22T09:55:27.380Z,100006.25
2019-05-22T10:00:32.715Z,100002.88
2019-05-22T10:03:01.659Z,100006.17
2019-05-22T10:05:30.902Z,100002.49
2019-05-22T10:08:01.909Z,100012.65
2019-05-22T10:10:31.171Z,100009.09
2019-05-22T10:13:02.742Z,100010.67
2019-05-22T10:15:32.391Z,100009.38
2019-05-22T10:18:01.338Z,100005.94
2019-05-22T10:20:29.809Z,100003.21
2019-05-22T10:23:14.161Z,100007.93
2019-05-22T10:25:28.933Z,100005.25
2019-05-22T10:27:59.331Z,100004.18
2019-05-22T10:30:28.218Z,100003.53
2019-05-22T10:32:56.710Z,100001.27
2019-05-22T10:35:26.840Z,100005.97
2019-05-22T10:37:56.082Z,100001.78
2019-05-22T10:40:25.200Z,100005.54
2019-05-22T10:42:54.442Z,100016.27
2019-05-22T10:45:22.882Z,100010.93
2019-05-22T10:47:51.526Z,100015.52
2019-05-22T10:50:20.256Z,100023.02
2019-05-22T10:52:54.218Z,100018.43
2019-05-22T10:55:20.541Z,100015.71
2019-05-22T10:57:49.498Z,100016.87
2019-05-22T11:00:20.014Z,100022.92
2019-05-22T11:02:49.279Z,100027.23
2019-05-22T11:05:20.296Z,100027.02
2019-05-22T11:07:50.329Z,100031.53
2019-05-22T11:10:21.075Z,100030.72
2019-05-22T11:12:50.462Z,100030.30
2019-05-22T11:15:19.577Z,100030.19
2019-05-22T11:17:48.841Z,100031.03
2019-05-22T11:20:18.361Z,100029.47
2019-05-22T11:22:47.309Z,100036.15
2019-05-22T11:25:17.421Z,100028.45
2019-05-22T11:27:46.351Z,100032.23
2019-05-22T11:30:16.731Z,100031.68
2019-05-22T11:32:45.858Z,100026.92
2019-05-22T11:35:16.139Z,100033.03
2019-05-22T11:37:44.699Z,100036.27
2019-05-22T11:40:14.302Z,100036.52
2019-05-22T11:42:42.913Z,100038.73
2019-05-22T11:45:13.049Z,100034.89
2019-05-22T11:47:42.006Z,100031.70
2019-05-22T11:50:12.625Z,100028.86
2019-05-22T11:52:42.189Z,100029.99
2019-05-22T11:55:13.716Z,100032.77
2019-05-22T11:57:43.895Z,100033.28
2019-05-22T12:00:13.647Z,100033.64
2019-05-22T12:02:44.536Z,100033.70
2019-05-22T12:05:15.312Z,100025.02
2019-05-22T12:07:44.540Z,100021.23
2019-05-22T12:10:15.099Z,100017.98
2019-05-22T12:12:45.223Z,100018.66
2019-05-22T12:15:15.770Z,100016.52
2019-05-22T12:17:44.853Z,100015.39
2019-05-22T12:20:14.410Z,100013.94
2019-05-22T12:22:43.580Z,100016.32
2019-05-22T12:25:15.573Z,100015.27
2019-05-22T12:27:44.024Z,100009.59
2019-05-22T12:30:14.713Z,100009.19
2019-05-22T12:32:43.739Z,100007.24
2019-05-22T12:35:15.213Z,100017.64
2019-05-22T12:37:43.887Z,100004.30
2019-05-22T12:40:15.619Z,100010.69
2019-05-22T12:42:44.836Z,100010.92
2019-05-22T12:45:14.358Z,100009.81
2019-05-22T12:47:43.432Z,100007.68
2019-05-22T12:50:14.891Z,99996.88
2019-05-22T12:52:46.328Z,99996.45
2019-05-22T12:55:16.125Z,99996.86
2019-05-22T12:57:45.065Z,99995.55
2019-05-22T13:00:13.864Z,99987.28
2019-05-22T13:02:43.311Z,99993.42
2019-05-22T13:05:14.543Z,99990.34
2019-05-22T13:07:42.303Z,99990.11
2019-05-22T13:10:11.511Z,99988.79
2019-05-22T13:12:40.358Z,99982.50
2019-05-22T13:15:10.995Z,99981.83
2019-05-22T13:17:40.805Z,99982.44
2019-05-22T13:20:10.101Z,99986.70
2019-05-22T13:22:40.962Z,99992.85
2019-05-22T13:25:12.439Z,99988.20
2019-05-22T13:27:41.682Z,99992.67
2019-05-22T13:30:12.910Z,99993.73
2019-05-22T13:32:44.392Z,99992.47
2019-05-22T13:35:15.177Z,99994.84
2019-05-22T13:37:44.430Z,99990.91
2019-05-22T13:40:27.251Z,99996.13
2019-05-22T13:42:45.005Z,99994.11
2019-05-22T13:45:28.533Z,99999.80
2019-05-22T13:47:45.767Z,99995.74
2019-05-22T13:50:17.332Z,99999.95
2019-05-22T13:52:47.581Z,99991.56
2019-05-22T13:55:17.581Z,99984.63
2019-05-22T13:57:47.406Z,99993.30
2019-05-22T14:00:19.213Z,99990.28
2019-05-22T14:02:48.045Z,99998.33
2019-05-22T14:05:18.118Z,99992.92
2019-05-22T14:07:46.736Z,99993.48
2019-05-22T14:10:16.665Z,99988.44
2019-05-22T14:12:45.291Z,99993.02
2019-05-22T14:15:14.437Z,99993.69
2019-05-22T14:17:42.967Z,99981.58
2019-05-22T14:20:12.082Z,99986.86
2019-05-22T14:22:40.726Z,99982.03
2019-05-22T14:25:09.845Z,99988.14
2019-05-22T14:27:41.673Z,99990.81
2019-05-22T14:30:11.746Z,99991.08
2019-05-22T14:32:40.798Z,100001.28
2019-05-22T14:35:11.378Z,99997.62
2019-05-22T14:37:41.219Z,99996.25
2019-05-22T14:40:11.937Z,99992.70
2019-05-22T14:42:40.621Z,99992.55
2019-05-22T14:45:09.609Z,99981.14
2019-05-22T14:47:38.360Z,99987.91
2019-05-22T14:50:08.482Z,99993.87
2019-05-22T14:52:37.181Z,99986.52
2019-05-22T14:55:09.629Z,99984.00
2019-05-22T14:57:38.932Z,99982.06
2019-05-22T15:00:10.372Z,99983.46
2019-05-22T15:02:39.238Z,99977.02
2019-05-22T15:05:08.688Z,99936.19
2019-05-22T15:07:37.245Z,99981.78
2019-05-22T15:10:08.712Z,99983.48
2019-05-22T15:12:37.618Z,99976.96
2019-05-22T15:15:08.198Z,99972.78
2019-05-22T15:17:37.533Z,99979.18
2019-05-22T15:20:10.329Z,99978.11
2019-05-22T15:22:39.085Z,99971.08
2019-05-22T15:25:09.255Z,99977.48
2019-05-22T15:27:38.418Z,99974.78
2019-05-22T15:30:11.631Z,99970.85
2019-05-22T15:32:40.127Z,99971.30
2019-05-22T15:35:09.896Z,99980.30
2019-05-22T15:37:39.646Z,99971.14
2019-05-22T15:40:10.778Z,99973.72
2019-05-22T15:42:44.688Z,99969.73
2019-05-22T15:45:19.704Z,99969.48
2019-05-22T15:47:55.610Z,99973.53
2019-05-22T15:50:26.910Z,99983.92
2019-05-22T15:52:57.156Z,99906.06
2019-05-22T15:55:30.029Z,99980.98
2019-05-22T15:58:00.533Z,99971.61
2019-05-22T16:00:35.538Z,99975.44
2019-05-22T16:03:17.732Z,99980.30
2019-05-22T16:05:48.200Z,99968.70
2019-05-22T16:08:17.436Z,99973.17
2019-05-22T16:10:47.354Z,99975.92
2019-05-22T16:13:19.174Z,99980.78
2019-05-22T16:15:49.925Z,99979.34
2019-05-22T16:18:22.103Z,99988.77
2019-05-22T16:20:50.780Z,99990.41
2019-05-22T16:23:22.116Z,99987.06
2019-05-22T16:25:52.781Z,99989.33
2019-05-22T16:28:22.697Z,99985.34
2019-05-22T16:30:52.354Z,99982.19
2019-05-22T16:33:24.310Z,99977.44
2019-05-22T16:35:53.354Z,99978.72
2019-05-22T16:38:23.410Z,99978.09
2019-05-22T16:40:52.085Z,99979.20
2019-05-22T16:43:20.530Z,99984.05
2019-05-22T16:45:49.074Z,99981.07
2019-05-22T16:48:28.307Z,99983.06
2019-05-22T16:50:48.210Z,99985.10
2019-05-22T16:53:19.726Z,99981.64
2019-05-22T16:55:49.744Z,99983.45
2019-05-22T16:58:19.252Z,99985.43
2019-05-22T17:00:49.826Z,99980.41
2019-05-22T17:03:19.649Z,99991.22
2019-05-22T17:05:48.333Z,99989.41
2019-05-22T17:08:18.443Z,99984.41
2019-05-22T17:10:48.392Z,99986.81
2019-05-22T17:13:17.403Z,99985.64
2019-05-22T17:15:46.314Z,99984.18
2019-05-22T17:18:17.952Z,99985.20
2019-05-22T17:20:47.533Z,99988.42
2019-05-22T17:23:16.278Z,99998.96
2019-05-22T17:25:45.202Z,99991.45
2019-05-22T17:28:14.511Z,99994.64
2019-05-22T17:30:43.799Z,99997.89
2019-05-22T17:33:13.117Z,99999.82
2019-05-22T17:35:42.392Z,99991.11
2019-05-22T17:38:11.127Z,99993.79
2019-05-22T17:40:41.373Z,100001.45
2019-05-22T17:43:10.512Z,100000.69
2019-05-22T17:45:42.853Z,100000.11
2019-05-22T17:48:14.852Z,100001.38
2019-05-22T17:50:44.964Z,100006.09
2019-05-22T17:53:13.948Z,100000.02
2019-05-22T17:55:42.913Z,100004.46
2019-05-22T17:58:12.961Z,100008.22
2019-05-22T18:00:49.639Z,100005.47
2019-05-22T18:03:18.194Z,100009.64
2019-05-22T18:05:47.797Z,100011.08
2019-05-22T18:08:16.890Z,100019.30
2019-05-22T18:10:48.697Z,100017.98
2019-05-22T18:13:17.620Z,100020.20
2019-05-22T18:15:46.737Z,100024.97
2019-05-22T18:18:16.152Z,100026.64
2019-05-22T18:20:44.680Z,100031.58
2019-05-22T18:23:13.311Z,100031.49
2019-05-22T18:25:42.912Z,100032.80
2019-05-22T18:28:12.418Z,100038.06
2019-05-22T18:30:44.434Z,100048.33
2019-05-22T18:33:13.441Z,100033.18
2019-05-22T18:35:42.121Z,100042.80
2019-05-22T18:38:10.739Z,100046.14
2019-05-22T18:40:39.249Z,100045.92
2019-05-22T18:43:07.703Z,100044.72
2019-05-22T18:45:37.248Z,100053.08
2019-05-22T18:48:06.395Z,100054.36
2019-05-22T18:50:36.120Z,100060.12
2019-05-22T18:53:04.670Z,100058.73
2019-05-22T18:55:33.142Z,100056.20
2019-05-22T18:58:02.012Z,100058.57
2019-05-22T19:00:32.337Z,100061.16
2019-05-22T19:03:01.097Z,100064.77
2019-05-22T19:05:32.223Z,100063.16
2019-05-22T19:08:00.991Z,100068.58
2019-05-22T19:10:29.820Z,100064.39
2019-05-22T19:12:58.336Z,100065.12
2019-05-22T19:15:27.206Z,100062.02
2019-05-22T19:17:55.860Z,100066.08
2019-05-22T19:20:24.422Z,100065.94
2019-05-22T19:23:00.204Z,100064.88
2019-05-22T19:25:23.356Z,100067.86
2019-05-22T19:27:51.845Z,100079.77
2019-05-22T19:30:21.708Z,100075.81
2019-05-22T19:32:50.867Z,100067.19
2019-05-22T19:35:19.526Z,100079.17
2019-05-22T19:37:48.887Z,100074.55
2019-05-22T19:40:18.601Z,100085.26
2019-05-22T19:42:47.469Z,100088.84
2019-05-22T19:45:17.727Z,100091.62
2019-05-22T19:47:55.795Z,100100.30
2019-05-22T19:50:25.282Z,100102.23
2019-05-22T19:52:55.165Z,100107.74
2019-05-22T19:55:25.949Z,100103.17
2019-05-22T19:57:55.198Z,100107.84
2019-05-22T20:03:46.055Z,100109.84
2019-05-22T20:06:14.940Z,100110.16
2019-05-22T20:08:44.965Z,100104.98
2019-05-22T20:11:13.876Z,100109.40
2019-05-22T20:13:43.631Z,100111.73
2019-05-22T20:16:12.106Z,100110.31
2019-05-22T20:18:41.275Z,100106.33
2019-05-22T20:21:10.160Z,100107.16
2019-05-22T20:23:38.595Z,100112.42
2019-05-22T20:26:07.758Z,100107.23
2019-05-22T20:28:38.232Z,100063.52
2019-05-22T20:31:07.486Z,100107.29
2019-05-22T20:33:36.307Z,100107.66
2019-05-22T20:36:05.356Z,100117.34
2019-05-22T20:38:34.022Z,100121.59
2019-05-22T20:41:02.823Z,100119.95
2019-05-22T20:43:31.748Z,100122.83
2019-05-22T20:46:01.243Z,100124.66
2019-05-22T20:48:30.081Z,100128.91
2019-05-22T20:50:59.627Z,100127.19
2019-05-22T20:53:30.289Z,100128.41
2019-05-22T20:55:59.718Z,100132.16
2019-05-22T20:58:30.438Z,100130.40
2019-05-22T21:00:59.788Z,100130.62
2019-05-22T21:03:30.483Z,100133.53
2019-05-22T21:05:59.995Z,100130.42
2019-05-22T21:08:29.085Z,100129.20
2019-05-22T21:11:01.422Z,100136.20
2019-05-22T21:13:31.705Z,100144.38
2019-05-22T21:16:01.838Z,100135.45
2019-05-22T21:18:31.878Z,100132.00
2019-05-22T21:21:00.714Z,100135.09
2019-05-22T21:23:29.662Z,100132.50
2019-05-22T21:25:58.939Z,100131.92
2019-05-22T21:28:28.062Z,100136.94
2019-05-22T21:30:57.571Z,100135.20
2019-05-22T21:33:26.326Z,100132.48
2019-05-22T21:35:54.916Z,100137.77
2019-05-22T21:38:23.643Z,100132.27
2019-05-22T21:40:53.743Z,100136.03
2019-05-22T21:43:22.708Z,100136.09
2019-05-22T21:45:51.178Z,100142.31
2019-05-22T21:48:20.708Z,100137.35
2019-05-22T21:50:49.251Z,100119.75
2019-05-22T21:53:18.109Z,100124.09
2019-05-22T21:55:46.810Z,100117.95
2019-05-22T21:58:16.054Z,100117.95
2019-05-22T22:00:58.462Z,100128.53
2019-05-22T22:03:46.540Z,100129.36
2019-05-22T22:06:16.871Z,100124.70
2019-05-22T22:08:46.001Z,100128.28
2019-05-22T22:11:14.922Z,100131.28
2019-05-22T22:13:43.716Z,100132.21
2019-05-22T22:16:12.399Z,100143.56
2019-05-22T22:18:41.139Z,100139.27
2019-05-22T22:21:11.316Z,100142.01
2019-05-22T22:23:40.140Z,100147.14
2019-05-22T22:26:24.807Z,100148.14
2019-05-22T22:28:40.290Z,100146.36
2019-05-22T22:31:13.518Z,100150.69
2019-05-22T22:33:45.270Z,100151.58
2019-05-22T22:36:14.304Z,100154.81
2019-05-22T22:38:42.961Z,100155.98
2019-05-22T22:41:13.877Z,100153.17
2019-05-22T22:43:44.855Z,100150.53
2019-05-22T22:46:23.404Z,100146.63
2019-05-22T22:48:55.318Z,100150.70
2019-05-22T22:51:26.045Z,100149.89
2019-05-22T22:53:56.432Z,100151.39
2019-05-22T22:56:25.682Z,100155.34
2019-05-22T22:58:54.394Z,100155.34
2019-05-22T23:01:27.650Z,100153.03
2019-05-22T23:03:59.109Z,100151.49
2019-05-22T23:06:28.211Z,100160.64
2019-05-22T23:08:56.742Z,100160.64
2019-05-22T23:11:27.355Z,100157.17
2019-05-22T23:13:57.099Z,100156.28
2019-05-22T23:16:25.592Z,100157.88
2019-05-22T23:19:16.939Z,100166.48
2019-05-22T23:21:45.348Z,100160.98
2019-05-22T23:24:14.264Z,100160.98
2019-05-22T23:26:42.800Z,100166.00
2019-05-22T23:29:12.545Z,100164.72
2019-05-22T23:31:41.189Z,100159.55
2019-05-22T23:34:10.125Z,100161.70
2019-05-22T23:36:39.062Z,100163.39
2019-05-22T23:39:12.779Z,100163.39
2019-05-22T23:41:42.084Z,100167.41
2019-05-22T23:44:12.293Z,100167.73
2019-05-22T23:46:42.916Z,100165.41
2019-05-22T23:49:12.535Z,100163.42
2019-05-22T23:51:42.048Z,100167.42
2019-05-22T23:54:10.849Z,100166.41
2019-05-22T23:56:39.900Z,100164.42
2019-05-22T23:59:09.539Z,100168.72
